createdAt,value
2024-03-02T00:04:09.986Z,76
2024-03-02T00:16:09.961Z,76
2024-03-02T00:28:09.810Z,76
2024-03-02T00:40:09.616Z,76
2024-03-02T00:52:09.775Z,76
2024-03-02T01:04:10.115Z,76
2024-03-02T01:16:09.983Z,76
2024-03-02T01:28:09.584Z,76
2024-03-02T01:40:09.811Z,75.5
2024-03-02T01:52:09.677Z,75.5
2024-03-02T02:04:09.532Z,75.5
2024-03-02T02:16:09.471Z,75.5
2024-03-02T02:28:09.868Z,75.5
2024-03-02T02:40:09.766Z,75.5
2024-03-02T02:52:09.565Z,75.5
2024-03-02T03:04:09.884Z,75.5
2024-03-02T03:16:09.850Z,75.5
2024-03-02T03:28:09.599Z,75.5
2024-03-02T03:40:09.769Z,75.5
2024-03-02T03:52:09.923Z,75.5
2024-03-02T04:04:09.849Z,75.5
2024-03-02T04:16:10.111Z,75.5
2024-03-02T04:28:10.436Z,75.5
2024-03-02T04:40:09.683Z,75
2024-03-02T04:52:09.828Z,75
2024-03-02T05:04:10.164Z,75
2024-03-02T05:16:09.678Z,72
2024-03-02T05:28:10.293Z,61.5
2024-03-02T05:40:10.042Z,64
2024-03-02T05:52:10.526Z,66.5
2024-03-02T06:04:10.320Z,67.5
2024-03-02T06:16:10.471Z,70
2024-03-02T06:28:10.061Z,60
2024-03-02T06:40:09.750Z,59.5
2024-03-02T06:52:09.933Z,63
2024-03-02T07:04:10.178Z,66
2024-03-02T07:16:10.256Z,68
2024-03-02T07:28:09.798Z,69
2024-03-02T07:40:10.186Z,64.5
2024-03-02T07:52:10.301Z,57
2024-03-02T08:04:09.893Z,60
2024-03-02T08:16:10.718Z,63
2024-03-02T08:28:10.504Z,64
2024-03-02T08:40:09.953Z,67
2024-03-02T08:52:10.114Z,68
2024-03-02T09:04:10.050Z,69
2024-03-02T09:16:10.713Z,69.5
2024-03-02T09:28:10.142Z,70.5
2024-03-02T09:40:10.318Z,70.5
2024-03-02T09:52:10.294Z,71
2024-03-02T10:04:10.477Z,72
2024-03-02T10:16:10.428Z,72.5
2024-03-02T10:28:10.810Z,72.5
2024-03-02T10:40:10.233Z,76
2024-03-02T10:52:10.417Z,77
2024-03-02T11:04:10.553Z,77.5
2024-03-02T11:16:10.278Z,77.5
2024-03-02T11:28:11.245Z,77
2024-03-02T11:40:10.719Z,77
2024-03-02T11:52:10.371Z,77
2024-03-02T12:04:10.488Z,77
2024-03-02T12:16:10.256Z,77
2024-03-02T12:28:11.067Z,77
2024-03-02T12:40:10.387Z,77.5
2024-03-02T12:52:10.362Z,77.5
2024-03-02T13:04:10.440Z,77.5
2024-03-02T13:16:10.731Z,77.5
2024-03-02T13:28:11.250Z,77.5
2024-03-02T13:40:10.661Z,77
2024-03-02T13:52:10.937Z,77
2024-03-02T14:04:10.931Z,74.5
2024-03-02T14:16:11.663Z,62.5
2024-03-02T14:28:26.125Z,63.5
2024-03-02T14:40:10.328Z,67
2024-03-02T14:52:10.623Z,69.5
2024-03-02T15:04:10.339Z,69.5
2024-03-02T15:16:10.541Z,68
2024-03-02T15:28:11.513Z,70.5
2024-03-02T15:40:10.973Z,72
2024-03-02T15:52:10.848Z,72.5
2024-03-02T16:04:11.166Z,73.5
2024-03-02T16:16:10.687Z,74.5
2024-03-02T16:28:11.492Z,74.5
2024-03-02T16:40:10.830Z,75
2024-03-02T16:52:10.786Z,76
2024-03-02T17:04:11.150Z,63
2024-03-02T17:16:10.594Z,64
2024-03-02T17:28:11.240Z,67
2024-03-02T17:40:11.509Z,69.5
2024-03-02T17:52:11.582Z,72
2024-03-02T18:04:12.413Z,72
2024-03-02T18:16:11.857Z,61.5
2024-03-02T18:28:11.648Z,62.5
2024-03-02T18:40:11.276Z,66.5
2024-03-02T18:52:11.459Z,69.5
2024-03-02T19:04:11.064Z,71.5
2024-03-02T19:16:11.191Z,72.5
2024-03-02T19:28:11.398Z,74
2024-03-02T19:40:10.853Z,75
2024-03-02T19:52:11.668Z,75
2024-03-02T20:04:10.945Z,75.5
2024-03-02T20:16:10.869Z,76
2024-03-02T20:28:11.038Z,67
2024-03-02T20:40:11.621Z,61
2024-03-02T20:52:10.905Z,64
2024-03-02T21:04:11.511Z,68
2024-03-02T21:16:10.875Z,70
2024-03-02T21:28:10.740Z,72
2024-03-02T21:40:10.911Z,72.5
2024-03-02T21:52:11.128Z,73.5
2024-03-02T22:04:12.136Z,74
2024-03-02T22:16:10.761Z,74.5
2024-03-02T22:28:10.746Z,75
2024-03-02T22:40:11.303Z,75
2024-03-02T22:52:11.107Z,75.5
2024-03-02T23:04:10.961Z,75.5
2024-03-02T23:16:11.282Z,75.5
2024-03-02T23:28:10.888Z,75.5
2024-03-02T23:40:11.066Z,75.5
2024-03-02T23:52:11.093Z,75.5
